Landisburg, Pennsylvania
Current Conditions -  °F | °C
As of 2:56 PM on Sunday 25 Jan 2015 (Local Time) from KCXY Reporting Station
Broken Clouds Broken Clouds  
Wind Chill: 37°   Ceiling: 9500
Heat Index: 40°   Visibility: 10mi
Dew Point: 31°   Wind: 5mph
Humidity: 70%   Direction: 280°W
Pressure: 29.8"   Gusts: NA
Location:  40.34°N, 77.31°W
Report Text: KCXY 251956Z 28004KT 10SM BKN095 BKN120 04/M01 A2980 RMK AO2 SLP097 T00441006
Loading
Personal Weather Stations






























Interactive Weather Map New forecast layout! Learn more

10-Day Weather Forecast

Advertisements
Track Severe Weather on mobile